sensor_id;sensor_type;location;lat;lon;timestamp;P1;durP1;ratioP1;P2;durP2;ratioP2
13331;SDS011;6735;51.456;12.626;2023-11-21T00:01:16;3.53;;;2.20;;
13331;SDS011;6735;51.456;12.626;2023-11-21T00:03:42;4.43;;;2.70;;
13331;SDS011;6735;51.456;12.626;2023-11-21T00:06:07;4.37;;;2.73;;
13331;SDS011;6735;51.456;12.626;2023-11-21T00:08:36;2.80;;;2.47;;
13331;SDS011;6735;51.456;12.626;2023-11-21T00:11:02;4.27;;;2.70;;
13331;SDS011;6735;51.456;12.626;2023-11-21T00:13:30;4.33;;;3.03;;
13331;SDS011;6735;51.456;12.626;2023-11-21T00:15:59;3.40;;;2.87;;
13331;SDS011;6735;51.456;12.626;2023-11-21T00:18:25;4.77;;;3.10;;
13331;SDS011;6735;51.456;12.626;2023-11-21T00:20:50;3.90;;;3.13;;
13331;SDS011;6735;51.456;12.626;2023-11-21T00:23:16;4.53;;;3.00;;
13331;SDS011;6735;51.456;12.626;2023-11-21T00:25:43;7.30;;;3.33;;
13331;SDS011;6735;51.456;12.626;2023-11-21T00:28:09;5.30;;;3.20;;
13331;SDS011;6735;51.456;12.626;2023-11-21T00:30:34;4.53;;;3.00;;
13331;SDS011;6735;51.456;12.626;2023-11-21T00:33:00;4.13;;;3.13;;
13331;SDS011;6735;51.456;12.626;2023-11-21T00:35:25;3.60;;;3.23;;
13331;SDS011;6735;51.456;12.626;2023-11-21T00:37:51;3.77;;;3.40;;
13331;SDS011;6735;51.456;12.626;2023-11-21T00:40:17;4.17;;;3.50;;
13331;SDS011;6735;51.456;12.626;2023-11-21T00:42:46;5.60;;;3.67;;
13331;SDS011;6735;51.456;12.626;2023-11-21T00:45:11;4.17;;;3.33;;
13331;SDS011;6735;51.456;12.626;2023-11-21T00:47:37;5.83;;;4.00;;
13331;SDS011;6735;51.456;12.626;2023-11-21T00:50:03;4.83;;;3.20;;
13331;SDS011;6735;51.456;12.626;2023-11-21T00:52:31;6.10;;;3.30;;
13331;SDS011;6735;51.456;12.626;2023-11-21T00:54:56;4.47;;;3.53;;
13331;SDS011;6735;51.456;12.626;2023-11-21T00:57:25;4.97;;;3.60;;
13331;SDS011;6735;51.456;12.626;2023-11-21T00:59:51;4.97;;;3.77;;
13331;SDS011;6735;51.456;12.626;2023-11-21T01:02:16;3.53;;;3.23;;
13331;SDS011;6735;51.456;12.626;2023-11-21T01:04:42;5.97;;;3.60;;
13331;SDS011;6735;51.456;12.626;2023-11-21T01:07:08;5.37;;;3.37;;
13331;SDS011;6735;51.456;12.626;2023-11-21T01:09:34;3.77;;;3.30;;
13331;SDS011;6735;51.456;12.626;2023-11-21T01:11:59;4.47;;;3.80;;
13331;SDS011;6735;51.456;12.626;2023-11-21T01:14:25;4.13;;;3.63;;
13331;SDS011;6735;51.456;12.626;2023-11-21T01:16:54;4.10;;;3.60;;
13331;SDS011;6735;51.456;12.626;2023-11-21T01:19:19;4.53;;;3.57;;
13331;SDS011;6735;51.456;12.626;2023-11-21T01:21:45;5.37;;;3.67;;
13331;SDS011;6735;51.456;12.626;2023-11-21T01:24:11;4.90;;;3.50;;
13331;SDS011;6735;51.456;12.626;2023-11-21T01:26:36;4.13;;;3.00;;
13331;SDS011;6735;51.456;12.626;2023-11-21T01:29:02;5.20;;;3.43;;
13331;SDS011;6735;51.456;12.626;2023-11-21T01:31:27;4.83;;;3.60;;
13331;SDS011;6735;51.456;12.626;2023-11-21T01:33:54;6.13;;;3.77;;
13331;SDS011;6735;51.456;12.626;2023-11-21T01:36:20;5.23;;;3.50;;
13331;SDS011;6735;51.456;12.626;2023-11-21T01:38:46;5.50;;;3.67;;
13331;SDS011;6735;51.456;12.626;2023-11-21T01:41:13;5.10;;;3.73;;
13331;SDS011;6735;51.456;12.626;2023-11-21T01:43:39;6.80;;;4.10;;
13331;SDS011;6735;51.456;12.626;2023-11-21T01:46:05;9.27;;;4.37;;
13331;SDS011;6735;51.456;12.626;2023-11-21T01:48:31;6.23;;;4.37;;
13331;SDS011;6735;51.456;12.626;2023-11-21T01:50:57;7.33;;;4.37;;
13331;SDS011;6735;51.456;12.626;2023-11-21T01:53:26;5.07;;;4.50;;
13331;SDS011;6735;51.456;12.626;2023-11-21T01:55:53;5.80;;;4.67;;
13331;SDS011;6735;51.456;12.626;2023-11-21T01:58:21;7.27;;;4.43;;
13331;SDS011;6735;51.456;12.626;2023-11-21T02:00:47;6.57;;;4.80;;
13331;SDS011;6735;51.456;12.626;2023-11-21T02:03:15;7.63;;;4.20;;
13331;SDS011;6735;51.456;12.626;2023-11-21T02:05:41;7.00;;;4.47;;
13331;SDS011;6735;51.456;12.626;2023-11-21T02:08:07;6.50;;;4.40;;
13331;SDS011;6735;51.456;12.626;2023-11-21T02:10:34;5.30;;;4.60;;
13331;SDS011;6735;51.456;12.626;2023-11-21T02:13:01;7.67;;;4.57;;
13331;SDS011;6735;51.456;12.626;2023-11-21T02:15:27;7.60;;;4.37;;
13331;SDS011;6735;51.456;12.626;2023-11-21T02:17:53;8.23;;;5.13;;
13331;SDS011;6735;51.456;12.626;2023-11-21T02:20:20;6.67;;;4.43;;
13331;SDS011;6735;51.456;12.626;2023-11-21T02:22:49;5.50;;;4.77;;
13331;SDS011;6735;51.456;12.626;2023-11-21T02:25:28;4.83;;;4.30;;
13331;SDS011;6735;51.456;12.626;2023-11-21T02:27:54;6.10;;;4.47;;
13331;SDS011;6735;51.456;12.626;2023-11-21T02:30:20;6.37;;;4.43;;
13331;SDS011;6735;51.456;12.626;2023-11-21T02:32:47;7.40;;;4.60;;
13331;SDS011;6735;51.456;12.626;2023-11-21T02:35:13;4.70;;;4.10;;
13331;SDS011;6735;51.456;12.626;2023-11-21T02:37:40;5.00;;;4.20;;
13331;SDS011;6735;51.456;12.626;2023-11-21T02:40:07;4.53;;;4.13;;
13331;SDS011;6735;51.456;12.626;2023-11-21T02:42:34;7.70;;;4.20;;
13331;SDS011;6735;51.456;12.626;2023-11-21T02:45:01;4.93;;;4.43;;
13331;SDS011;6735;51.456;12.626;2023-11-21T02:47:27;5.70;;;4.07;;
13331;SDS011;6735;51.456;12.626;2023-11-21T02:49:53;5.63;;;4.20;;
13331;SDS011;6735;51.456;12.626;2023-11-21T02:52:19;6.13;;;3.50;;
13331;SDS011;6735;51.456;12.626;2023-11-21T02:54:45;3.97;;;3.57;;
13331;SDS011;6735;51.456;12.626;2023-11-21T02:57:10;4.23;;;3.30;;
13331;SDS011;6735;51.456;12.626;2023-11-21T02:59:36;4.60;;;4.10;;
13331;SDS011;6735;51.456;12.626;2023-11-21T03:02:01;4.70;;;3.47;;
13331;SDS011;6735;51.456;12.626;2023-11-21T03:04:27;6.67;;;3.90;;
13331;SDS011;6735;51.456;12.626;2023-11-21T03:06:52;5.53;;;3.73;;
13331;SDS011;6735;51.456;12.626;2023-11-21T03:09:18;4.70;;;3.57;;
13331;SDS011;6735;51.456;12.626;2023-11-21T03:11:43;5.10;;;3.53;;
13331;SDS011;6735;51.456;12.626;2023-11-21T03:14:09;6.83;;;4.20;;
13331;SDS011;6735;51.456;12.626;2023-11-21T03:16:35;4.63;;;3.63;;
13331;SDS011;6735;51.456;12.626;2023-11-21T03:19:03;4.13;;;3.53;;
13331;SDS011;6735;51.456;12.626;2023-11-21T03:21:30;6.37;;;3.40;;
13331;SDS011;6735;51.456;12.626;2023-11-21T03:23:55;3.87;;;3.57;;
13331;SDS011;6735;51.456;12.626;2023-11-21T03:26:21;3.63;;;3.03;;
13331;SDS011;6735;51.456;12.626;2023-11-21T03:28:46;5.27;;;3.50;;
13331;SDS011;6735;51.456;12.626;2023-11-21T03:31:12;4.27;;;3.13;;
13331;SDS011;6735;51.456;12.626;2023-11-21T03:33:37;7.53;;;3.30;;
13331;SDS011;6735;51.456;12.626;2023-11-21T03:36:03;3.53;;;3.20;;
13331;SDS011;6735;51.456;12.626;2023-11-21T03:38:29;3.90;;;2.83;;
13331;SDS011;6735;51.456;12.626;2023-11-21T03:40:54;4.57;;;3.10;;
13331;SDS011;6735;51.456;12.626;2023-11-21T03:43:20;6.57;;;3.80;;
13331;SDS011;6735;51.456;12.626;2023-11-21T03:45:45;6.20;;;3.50;;
13331;SDS011;6735;51.456;12.626;2023-11-21T03:48:11;6.00;;;4.10;;
13331;SDS011;6735;51.456;12.626;2023-11-21T03:50:37;4.30;;;3.90;;
13331;SDS011;6735;51.456;12.626;2023-11-21T03:53:03;9.23;;;4.90;;
13331;SDS011;6735;51.456;12.626;2023-11-21T03:55:29;6.73;;;4.83;;
13331;SDS011;6735;51.456;12.626;2023-11-21T03:57:56;6.93;;;3.87;;
13331;SDS011;6735;51.456;12.626;2023-11-21T04:00:22;7.40;;;3.90;;
13331;SDS011;6735;51.456;12.626;2023-11-21T04:02:48;5.87;;;4.40;;
13331;SDS011;6735;51.456;12.626;2023-11-21T04:05:15;5.47;;;4.10;;
13331;SDS011;6735;51.456;12.626;2023-11-21T04:07:41;8.70;;;4.43;;
13331;SDS011;6735;51.456;12.626;2023-11-21T04:10:07;5.53;;;4.00;;
13331;SDS011;6735;51.456;12.626;2023-11-21T04:12:34;7.57;;;5.00;;
13331;SDS011;6735;51.456;12.626;2023-11-21T04:15:00;5.33;;;3.67;;
13331;SDS011;6735;51.456;12.626;2023-11-21T04:17:26;5.47;;;4.10;;
13331;SDS011;6735;51.456;12.626;2023-11-21T04:19:51;7.90;;;3.80;;
13331;SDS011;6735;51.456;12.626;2023-11-21T04:22:17;7.83;;;4.03;;
13331;SDS011;6735;51.456;12.626;2023-11-21T04:24:42;8.43;;;4.80;;
13331;SDS011;6735;51.456;12.626;2023-11-21T04:27:08;5.60;;;4.23;;
13331;SDS011;6735;51.456;12.626;2023-11-21T04:29:33;7.73;;;4.10;;
13331;SDS011;6735;51.456;12.626;2023-11-21T04:31:59;8.53;;;4.83;;
13331;SDS011;6735;51.456;12.626;2023-11-21T04:34:26;6.07;;;4.23;;
13331;SDS011;6735;51.456;12.626;2023-11-21T04:36:51;6.50;;;4.10;;
13331;SDS011;6735;51.456;12.626;2023-11-21T04:39:17;6.90;;;3.93;;
13331;SDS011;6735;51.456;12.626;2023-11-21T04:41:42;7.90;;;4.50;;
13331;SDS011;6735;51.456;12.626;2023-11-21T04:44:08;10.23;;;4.77;;
13331;SDS011;6735;51.456;12.626;2023-11-21T04:46:33;7.13;;;4.37;;
13331;SDS011;6735;51.456;12.626;2023-11-21T04:48:59;8.93;;;4.23;;
13331;SDS011;6735;51.456;12.626;2023-11-21T04:51:24;10.33;;;5.13;;
13331;SDS011;6735;51.456;12.626;2023-11-21T04:53:50;8.07;;;5.00;;
13331;SDS011;6735;51.456;12.626;2023-11-21T04:56:15;11.27;;;6.13;;
13331;SDS011;6735;51.456;12.626;2023-11-21T04:58:41;11.40;;;6.27;;
13331;SDS011;6735;51.456;12.626;2023-11-21T05:01:07;12.27;;;7.30;;
13331;SDS011;6735;51.456;12.626;2023-11-21T05:03:33;13.17;;;7.23;;
13331;SDS011;6735;51.456;12.626;2023-11-21T05:05:59;13.73;;;7.80;;
13331;SDS011;6735;51.456;12.626;2023-11-21T05:08:25;15.17;;;7.97;;
13331;SDS011;6735;51.456;12.626;2023-11-21T05:10:51;10.87;;;6.23;;
13331;SDS011;6735;51.456;12.626;2023-11-21T05:13:17;12.63;;;6.33;;
13331;SDS011;6735;51.456;12.626;2023-11-21T05:15:43;11.50;;;6.87;;
13331;SDS011;6735;51.456;12.626;2023-11-21T05:18:09;11.13;;;7.47;;
13331;SDS011;6735;51.456;12.626;2023-11-21T05:20:35;11.07;;;6.77;;
13331;SDS011;6735;51.456;12.626;2023-11-21T05:23:03;11.60;;;7.60;;
13331;SDS011;6735;51.456;12.626;2023-11-21T05:25:28;10.90;;;6.03;;
13331;SDS011;6735;51.456;12.626;2023-11-21T05:27:54;11.03;;;5.50;;
13331;SDS011;6735;51.456;12.626;2023-11-21T05:30:19;11.17;;;5.23;;
13331;SDS011;6735;51.456;12.626;2023-11-21T05:32:46;11.93;;;5.97;;
13331;SDS011;6735;51.456;12.626;2023-11-21T05:35:11;12.47;;;5.43;;
13331;SDS011;6735;51.456;12.626;2023-11-21T05:37:40;7.47;;;5.80;;
13331;SDS011;6735;51.456;12.626;2023-11-21T05:40:07;9.57;;;5.80;;
13331;SDS011;6735;51.456;12.626;2023-11-21T05:42:33;13.60;;;6.30;;
13331;SDS011;6735;51.456;12.626;2023-11-21T05:44:59;11.03;;;5.60;;
13331;SDS011;6735;51.456;12.626;2023-11-21T05:47:34;10.73;;;6.17;;
13331;SDS011;6735;51.456;12.626;2023-11-21T05:50:10;14.60;;;6.63;;
13331;SDS011;6735;51.456;12.626;2023-11-21T05:52:39;9.43;;;6.13;;
13331;SDS011;6735;51.456;12.626;2023-11-21T05:55:06;7.30;;;5.90;;
13331;SDS011;6735;51.456;12.626;2023-11-21T05:57:32;11.50;;;5.90;;
13331;SDS011;6735;51.456;12.626;2023-11-21T06:00:05;16.70;;;7.40;;
13331;SDS011;6735;51.456;12.626;2023-11-21T06:02:50;9.90;;;5.80;;
13331;SDS011;6735;51.456;12.626;2023-11-21T06:05:18;12.53;;;6.67;;
13331;SDS011;6735;51.456;12.626;2023-11-21T06:07:45;8.70;;;6.30;;
13331;SDS011;6735;51.456;12.626;2023-11-21T06:10:10;10.60;;;6.20;;
13331;SDS011;6735;51.456;12.626;2023-11-21T06:12:40;10.80;;;5.90;;
13331;SDS011;6735;51.456;12.626;2023-11-21T06:15:07;10.37;;;6.13;;
13331;SDS011;6735;51.456;12.626;2023-11-21T06:17:35;12.80;;;7.07;;
13331;SDS011;6735;51.456;12.626;2023-11-21T06:20:01;16.70;;;6.57;;
13331;SDS011;6735;51.456;12.626;2023-11-21T06:22:33;12.87;;;7.13;;
13331;SDS011;6735;51.456;12.626;2023-11-21T06:24:59;11.27;;;7.00;;
13331;SDS011;6735;51.456;12.626;2023-11-21T06:27:25;14.33;;;7.10;;
13331;SDS011;6735;51.456;12.626;2023-11-21T06:29:50;14.03;;;7.73;;
13331;SDS011;6735;51.456;12.626;2023-11-21T06:32:16;15.60;;;7.37;;
13331;SDS011;6735;51.456;12.626;2023-11-21T06:34:42;11.33;;;7.23;;
13331;SDS011;6735;51.456;12.626;2023-11-21T06:37:08;12.00;;;7.17;;
13331;SDS011;6735;51.456;12.626;2023-11-21T06:39:33;13.97;;;7.50;;
13331;SDS011;6735;51.456;12.626;2023-11-21T06:42:00;13.87;;;7.83;;
13331;SDS011;6735;51.456;12.626;2023-11-21T06:44:26;14.67;;;8.67;;
13331;SDS011;6735;51.456;12.626;2023-11-21T06:46:51;10.83;;;7.70;;
13331;SDS011;6735;51.456;12.626;2023-11-21T06:49:17;15.23;;;8.23;;
13331;SDS011;6735;51.456;12.626;2023-11-21T06:51:42;14.60;;;7.83;;
13331;SDS011;6735;51.456;12.626;2023-11-21T06:54:08;15.47;;;8.27;;
13331;SDS011;6735;51.456;12.626;2023-11-21T06:56:34;15.13;;;7.67;;
13331;SDS011;6735;51.456;12.626;2023-11-21T06:58:59;15.60;;;8.63;;
13331;SDS011;6735;51.456;12.626;2023-11-21T07:01:25;16.93;;;9.50;;
13331;SDS011;6735;51.456;12.626;2023-11-21T07:03:50;14.07;;;8.40;;
13331;SDS011;6735;51.456;12.626;2023-11-21T07:06:16;17.33;;;8.57;;
13331;SDS011;6735;51.456;12.626;2023-11-21T07:08:41;22.67;;;10.57;;
13331;SDS011;6735;51.456;12.626;2023-11-21T07:11:07;16.40;;;9.70;;
13331;SDS011;6735;51.456;12.626;2023-11-21T07:13:33;15.97;;;8.73;;
13331;SDS011;6735;51.456;12.626;2023-11-21T07:15:59;20.30;;;11.13;;
13331;SDS011;6735;51.456;12.626;2023-11-21T07:18:24;21.70;;;10.70;;
13331;SDS011;6735;51.456;12.626;2023-11-21T07:20:50;21.80;;;11.07;;
13331;SDS011;6735;51.456;12.626;2023-11-21T07:23:16;19.67;;;10.57;;
13331;SDS011;6735;51.456;12.626;2023-11-21T07:25:42;20.47;;;11.20;;
13331;SDS011;6735;51.456;12.626;2023-11-21T07:28:08;11.03;;;6.80;;
13331;SDS011;6735;51.456;12.626;2023-11-21T07:30:34;10.30;;;6.27;;
13331;SDS011;6735;51.456;12.626;2023-11-21T07:33:00;8.73;;;6.10;;
13331;SDS011;6735;51.456;12.626;2023-11-21T07:35:25;9.37;;;6.13;;
13331;SDS011;6735;51.456;12.626;2023-11-21T07:37:51;9.13;;;5.40;;
13331;SDS011;6735;51.456;12.626;2023-11-21T07:40:17;6.83;;;5.20;;
13331;SDS011;6735;51.456;12.626;2023-11-21T07:42:42;7.63;;;5.27;;
13331;SDS011;6735;51.456;12.626;2023-11-21T07:45:08;7.23;;;5.00;;
13331;SDS011;6735;51.456;12.626;2023-11-21T07:47:34;6.93;;;4.90;;
13331;SDS011;6735;51.456;12.626;2023-11-21T07:50:00;7.50;;;5.40;;
13331;SDS011;6735;51.456;12.626;2023-11-21T07:52:28;7.83;;;5.23;;
13331;SDS011;6735;51.456;12.626;2023-11-21T07:54:53;7.73;;;5.60;;
13331;SDS011;6735;51.456;12.626;2023-11-21T07:57:19;8.47;;;6.10;;
13331;SDS011;6735;51.456;12.626;2023-11-21T07:59:44;11.60;;;6.83;;
13331;SDS011;6735;51.456;12.626;2023-11-21T08:02:10;10.10;;;6.47;;
13331;SDS011;6735;51.456;12.626;2023-11-21T08:04:35;12.00;;;6.67;;
13331;SDS011;6735;51.456;12.626;2023-11-21T08:07:01;10.40;;;6.27;;
13331;SDS011;6735;51.456;12.626;2023-11-21T08:09:28;11.13;;;5.70;;
13331;SDS011;6735;51.456;12.626;2023-11-21T08:11:54;12.87;;;6.33;;
13331;SDS011;6735;51.456;12.626;2023-11-21T08:14:20;10.37;;;6.97;;
13331;SDS011;6735;51.456;12.626;2023-11-21T08:16:45;12.83;;;7.33;;
13331;SDS011;6735;51.456;12.626;2023-11-21T08:19:11;12.47;;;6.50;;
13331;SDS011;6735;51.456;12.626;2023-11-21T08:21:36;15.47;;;7.23;;
13331;SDS011;6735;51.456;12.626;2023-11-21T08:24:04;13.63;;;6.60;;
13331;SDS011;6735;51.456;12.626;2023-11-21T08:26:30;11.50;;;6.10;;
13331;SDS011;6735;51.456;12.626;2023-11-21T08:28:55;13.23;;;6.63;;
13331;SDS011;6735;51.456;12.626;2023-11-21T08:31:25;13.03;;;6.87;;
13331;SDS011;6735;51.456;12.626;2023-11-21T08:33:51;11.73;;;6.03;;
13331;SDS011;6735;51.456;12.626;2023-11-21T08:36:20;12.97;;;6.40;;
13331;SDS011;6735;51.456;12.626;2023-11-21T08:38:49;11.13;;;6.73;;
13331;SDS011;6735;51.456;12.626;2023-11-21T08:41:14;12.67;;;6.40;;
13331;SDS011;6735;51.456;12.626;2023-11-21T08:43:41;11.27;;;5.37;;
13331;SDS011;6735;51.456;12.626;2023-11-21T08:46:07;12.13;;;6.30;;
13331;SDS011;6735;51.456;12.626;2023-11-21T08:48:33;11.17;;;6.37;;
13331;SDS011;6735;51.456;12.626;2023-11-21T08:51:00;13.57;;;6.57;;
13331;SDS011;6735;51.456;12.626;2023-11-21T08:53:26;11.43;;;6.77;;
13331;SDS011;6735;51.456;12.626;2023-11-21T08:55:51;13.20;;;5.77;;
13331;SDS011;6735;51.456;12.626;2023-11-21T08:58:18;10.87;;;5.93;;
13331;SDS011;6735;51.456;12.626;2023-11-21T09:00:44;9.47;;;5.90;;
13331;SDS011;6735;51.456;12.626;2023-11-21T09:03:11;9.57;;;5.80;;
13331;SDS011;6735;51.456;12.626;2023-11-21T09:05:37;7.50;;;5.17;;
13331;SDS011;6735;51.456;12.626;2023-11-21T09:08:04;10.73;;;6.07;;
13331;SDS011;6735;51.456;12.626;2023-11-21T09:10:29;10.43;;;6.20;;
13331;SDS011;6735;51.456;12.626;2023-11-21T09:12:55;10.63;;;5.93;;
13331;SDS011;6735;51.456;12.626;2023-11-21T09:15:21;7.67;;;5.77;;
13331;SDS011;6735;51.456;12.626;2023-11-21T09:17:47;10.13;;;5.80;;
13331;SDS011;6735;51.456;12.626;2023-11-21T09:20:12;9.13;;;5.83;;
13331;SDS011;6735;51.456;12.626;2023-11-21T09:22:39;9.83;;;5.87;;
13331;SDS011;6735;51.456;12.626;2023-11-21T09:25:05;6.07;;;4.83;;
13331;SDS011;6735;51.456;12.626;2023-11-21T09:27:33;6.57;;;5.20;;
13331;SDS011;6735;51.456;12.626;2023-11-21T09:30:00;6.77;;;5.33;;
13331;SDS011;6735;51.456;12.626;2023-11-21T09:32:26;8.53;;;6.20;;
13331;SDS011;6735;51.456;12.626;2023-11-21T09:34:52;9.53;;;5.97;;
13331;SDS011;6735;51.456;12.626;2023-11-21T09:37:20;6.97;;;5.33;;
13331;SDS011;6735;51.456;12.626;2023-11-21T09:39:45;9.37;;;5.53;;
13331;SDS011;6735;51.456;12.626;2023-11-21T09:42:13;7.93;;;5.67;;
13331;SDS011;6735;51.456;12.626;2023-11-21T09:45:03;11.80;;;7.13;;
13331;SDS011;6735;51.456;12.626;2023-11-21T09:47:38;9.70;;;6.27;;
13331;SDS011;6735;51.456;12.626;2023-11-21T09:50:04;10.47;;;6.93;;
13331;SDS011;6735;51.456;12.626;2023-11-21T09:52:33;17.17;;;9.57;;
13331;SDS011;6735;51.456;12.626;2023-11-21T09:55:17;17.77;;;9.83;;
13331;SDS011;6735;51.456;12.626;2023-11-21T09:57:47;17.70;;;10.70;;
13331;SDS011;6735;51.456;12.626;2023-11-21T10:00:14;16.17;;;10.50;;
13331;SDS011;6735;51.456;12.626;2023-11-21T10:02:42;17.33;;;10.50;;
13331;SDS011;6735;51.456;12.626;2023-11-21T10:05:08;17.40;;;10.90;;
13331;SDS011;6735;51.456;12.626;2023-11-21T10:07:38;17.97;;;10.63;;
13331;SDS011;6735;51.456;12.626;2023-11-21T10:10:07;16.70;;;10.13;;
13331;SDS011;6735;51.456;12.626;2023-11-21T10:12:33;19.70;;;10.87;;
13331;SDS011;6735;51.456;12.626;2023-11-21T10:15:00;24.47;;;10.70;;
13331;SDS011;6735;51.456;12.626;2023-11-21T10:17:31;20.30;;;12.10;;
13331;SDS011;6735;51.456;12.626;2023-11-21T10:20:04;19.33;;;10.60;;
13331;SDS011;6735;51.456;12.626;2023-11-21T10:22:36;18.03;;;10.60;;
13331;SDS011;6735;51.456;12.626;2023-11-21T10:25:09;18.60;;;10.07;;
13331;SDS011;6735;51.456;12.626;2023-11-21T10:27:36;18.70;;;10.57;;
13331;SDS011;6735;51.456;12.626;2023-11-21T10:30:03;18.20;;;11.13;;
13331;SDS011;6735;51.456;12.626;2023-11-21T10:32:30;16.83;;;10.20;;
13331;SDS011;6735;51.456;12.626;2023-11-21T10:34:57;18.13;;;9.73;;
13331;SDS011;6735;51.456;12.626;2023-11-21T10:37:31;16.77;;;10.70;;
13331;SDS011;6735;51.456;12.626;2023-11-21T10:39:59;14.33;;;9.87;;
13331;SDS011;6735;51.456;12.626;2023-11-21T10:42:25;14.50;;;8.60;;
13331;SDS011;6735;51.456;12.626;2023-11-21T10:44:52;14.97;;;9.00;;
13331;SDS011;6735;51.456;12.626;2023-11-21T10:47:20;14.50;;;9.37;;
13331;SDS011;6735;51.456;12.626;2023-11-21T10:49:51;14.97;;;8.77;;
13331;SDS011;6735;51.456;12.626;2023-11-21T10:52:18;16.43;;;9.90;;
13331;SDS011;6735;51.456;12.626;2023-11-21T10:54:45;14.80;;;9.20;;
13331;SDS011;6735;51.456;12.626;2023-11-21T10:57:11;14.20;;;8.97;;
13331;SDS011;6735;51.456;12.626;2023-11-21T10:59:42;15.03;;;8.77;;
13331;SDS011;6735;51.456;12.626;2023-11-21T11:02:18;14.87;;;8.40;;
13331;SDS011;6735;51.456;12.626;2023-11-21T11:04:48;11.33;;;7.43;;
13331;SDS011;6735;51.456;12.626;2023-11-21T11:07:15;9.73;;;6.67;;
13331;SDS011;6735;51.456;12.626;2023-11-21T11:09:42;12.10;;;7.73;;
13331;SDS011;6735;51.456;12.626;2023-11-21T11:12:09;12.47;;;7.97;;
13331;SDS011;6735;51.456;12.626;2023-11-21T11:14:35;11.90;;;7.90;;
13331;SDS011;6735;51.456;12.626;2023-11-21T11:17:01;14.37;;;8.53;;
13331;SDS011;6735;51.456;12.626;2023-11-21T11:19:29;11.87;;;7.97;;
13331;SDS011;6735;51.456;12.626;2023-11-21T11:27:57;12.23;;;7.47;;
13331;SDS011;6735;51.456;12.626;2023-11-21T11:30:38;9.03;;;6.57;;
13331;SDS011;6735;51.456;12.626;2023-11-21T11:33:14;9.90;;;6.73;;
13331;SDS011;6735;51.456;12.626;2023-11-21T11:36:05;10.67;;;6.40;;
13331;SDS011;6735;51.456;12.626;2023-11-21T11:38:51;9.23;;;6.30;;
13331;SDS011;6735;51.456;12.626;2023-11-21T11:41:29;9.00;;;6.70;;
13331;SDS011;6735;51.456;12.626;2023-11-21T11:43:58;7.63;;;6.47;;
13331;SDS011;6735;51.456;12.626;2023-11-21T11:46:40;8.27;;;5.97;;
13331;SDS011;6735;51.456;12.626;2023-11-21T11:49:07;8.23;;;6.27;;
13331;SDS011;6735;51.456;12.626;2023-11-21T11:51:33;10.83;;;7.33;;
13331;SDS011;6735;51.456;12.626;2023-11-21T11:54:00;10.00;;;6.63;;
13331;SDS011;6735;51.456;12.626;2023-11-21T11:56:30;9.43;;;6.83;;
13331;SDS011;6735;51.456;12.626;2023-11-21T11:58:59;11.07;;;6.87;;
13331;SDS011;6735;51.456;12.626;2023-11-21T12:01:27;9.63;;;6.57;;
13331;SDS011;6735;51.456;12.626;2023-11-21T12:06:51;8.67;;;6.40;;
13331;SDS011;6735;51.456;12.626;2023-11-21T12:09:18;8.63;;;6.00;;
13331;SDS011;6735;51.456;12.626;2023-11-21T12:11:46;9.27;;;6.87;;
13331;SDS011;6735;51.456;12.626;2023-11-21T12:14:16;9.73;;;6.40;;
13331;SDS011;6735;51.456;12.626;2023-11-21T12:16:42;11.97;;;7.13;;
13331;SDS011;6735;51.456;12.626;2023-11-21T12:19:11;9.57;;;6.37;;
13331;SDS011;6735;51.456;12.626;2023-11-21T12:21:37;9.13;;;6.77;;
13331;SDS011;6735;51.456;12.626;2023-11-21T12:24:06;9.77;;;6.27;;
13331;SDS011;6735;51.456;12.626;2023-11-21T12:26:34;8.77;;;5.87;;
13331;SDS011;6735;51.456;12.626;2023-11-21T12:29:01;8.57;;;5.80;;
13331;SDS011;6735;51.456;12.626;2023-11-21T12:31:29;8.23;;;6.00;;
13331;SDS011;6735;51.456;12.626;2023-11-21T12:33:55;10.17;;;6.33;;
13331;SDS011;6735;51.456;12.626;2023-11-21T12:36:21;9.20;;;5.70;;
13331;SDS011;6735;51.456;12.626;2023-11-21T12:38:47;8.23;;;6.17;;
13331;SDS011;6735;51.456;12.626;2023-11-21T12:41:12;8.47;;;5.83;;
13331;SDS011;6735;51.456;12.626;2023-11-21T12:43:38;7.10;;;5.77;;
13331;SDS011;6735;51.456;12.626;2023-11-21T12:46:07;7.57;;;6.10;;
13331;SDS011;6735;51.456;12.626;2023-11-21T12:48:37;7.33;;;5.63;;
13331;SDS011;6735;51.456;12.626;2023-11-21T12:51:04;9.27;;;5.93;;
13331;SDS011;6735;51.456;12.626;2023-11-21T12:53:31;9.83;;;6.23;;
13331;SDS011;6735;51.456;12.626;2023-11-21T12:56:01;8.70;;;5.87;;
13331;SDS011;6735;51.456;12.626;2023-11-21T12:58:28;7.47;;;5.70;;
13331;SDS011;6735;51.456;12.626;2023-11-21T13:00:54;11.00;;;6.70;;
13331;SDS011;6735;51.456;12.626;2023-11-21T13:03:24;12.53;;;6.17;;
13331;SDS011;6735;51.456;12.626;2023-11-21T13:05:51;7.57;;;5.73;;
13331;SDS011;6735;51.456;12.626;2023-11-21T13:08:20;7.50;;;5.40;;
13331;SDS011;6735;51.456;12.626;2023-11-21T13:10:49;8.07;;;6.10;;
13331;SDS011;6735;51.456;12.626;2023-11-21T13:13:16;8.67;;;5.77;;
13331;SDS011;6735;51.456;12.626;2023-11-21T13:15:55;9.17;;;6.33;;
13331;SDS011;6735;51.456;12.626;2023-11-21T13:18:22;9.93;;;5.57;;
13331;SDS011;6735;51.456;12.626;2023-11-21T13:20:55;7.47;;;5.70;;
13331;SDS011;6735;51.456;12.626;2023-11-21T13:23:22;7.03;;;5.17;;
13331;SDS011;6735;51.456;12.626;2023-11-21T13:25:48;7.37;;;5.30;;
13331;SDS011;6735;51.456;12.626;2023-11-21T13:28:15;7.70;;;5.37;;
13331;SDS011;6735;51.456;12.626;2023-11-21T13:30:41;6.50;;;5.13;;
13331;SDS011;6735;51.456;12.626;2023-11-21T13:33:07;5.03;;;4.53;;
13331;SDS011;6735;51.456;12.626;2023-11-21T13:35:37;6.63;;;5.30;;
13331;SDS011;6735;51.456;12.626;2023-11-21T13:38:10;7.03;;;4.90;;
13331;SDS011;6735;51.456;12.626;2023-11-21T13:40:46;9.40;;;5.07;;
13331;SDS011;6735;51.456;12.626;2023-11-21T13:43:15;5.63;;;4.17;;
13331;SDS011;6735;51.456;12.626;2023-11-21T13:45:44;6.57;;;4.17;;
13331;SDS011;6735;51.456;12.626;2023-11-21T13:48:11;5.37;;;4.10;;
13331;SDS011;6735;51.456;12.626;2023-11-21T13:50:39;5.60;;;3.93;;
13331;SDS011;6735;51.456;12.626;2023-11-21T13:53:13;4.90;;;4.07;;
13331;SDS011;6735;51.456;12.626;2023-11-21T13:55:48;4.57;;;3.87;;
13331;SDS011;6735;51.456;12.626;2023-11-21T13:58:14;5.10;;;4.10;;
13331;SDS011;6735;51.456;12.626;2023-11-21T14:00:44;3.87;;;3.47;;
13331;SDS011;6735;51.456;12.626;2023-11-21T14:03:14;3.67;;;3.37;;
13331;SDS011;6735;51.456;12.626;2023-11-21T14:05:45;3.43;;;3.10;;
13331;SDS011;6735;51.456;12.626;2023-11-21T14:08:17;3.90;;;3.17;;
13331;SDS011;6735;51.456;12.626;2023-11-21T14:10:46;4.27;;;3.53;;
13331;SDS011;6735;51.456;12.626;2023-11-21T14:13:22;4.23;;;3.30;;
13331;SDS011;6735;51.456;12.626;2023-11-21T14:15:53;4.30;;;3.90;;
13331;SDS011;6735;51.456;12.626;2023-11-21T14:18:24;3.63;;;3.33;;
13331;SDS011;6735;51.456;12.626;2023-11-21T14:20:59;3.50;;;3.10;;
13331;SDS011;6735;51.456;12.626;2023-11-21T14:23:24;4.57;;;3.77;;
13331;SDS011;6735;51.456;12.626;2023-11-21T14:25:50;4.83;;;3.70;;
13331;SDS011;6735;51.456;12.626;2023-11-21T14:28:16;4.30;;;3.50;;
13331;SDS011;6735;51.456;12.626;2023-11-21T14:30:42;3.47;;;3.17;;
13331;SDS011;6735;51.456;12.626;2023-11-21T14:33:08;3.60;;;3.20;;
13331;SDS011;6735;51.456;12.626;2023-11-21T14:35:36;3.93;;;3.37;;
13331;SDS011;6735;51.456;12.626;2023-11-21T14:38:02;3.73;;;3.20;;
13331;SDS011;6735;51.456;12.626;2023-11-21T14:40:29;4.00;;;3.30;;
13331;SDS011;6735;51.456;12.626;2023-11-21T14:42:59;3.40;;;3.10;;
13331;SDS011;6735;51.456;12.626;2023-11-21T14:45:25;4.00;;;3.10;;
13331;SDS011;6735;51.456;12.626;2023-11-21T14:47:52;3.77;;;3.23;;
13331;SDS011;6735;51.456;12.626;2023-11-21T14:50:29;4.10;;;3.70;;
13331;SDS011;6735;51.456;12.626;2023-11-21T14:53:07;4.20;;;3.80;;